Time;durP1;ratioP1;P1;durP2;ratioP2;P2;SDS_P1;SDS_P2;PMS_P1;PMS_P2;Temp;Humidity;BMP_temperature;BMP_pressure;BME280_temperature;BME280_humidity;BME280_pressure;Samples;Min_cycle;Max_cycle;Signal;HPM_P1;HPM_P2
2022/09/01 00:02:28;;;;;;;6.88;2.63;;;23.80;98.20;;;;;;4901728;29;20102;-74
2022/09/01 00:04:57;;;;;;;8.57;2.08;;;23.80;98.00;;;;;;4902160;29;21281;-74
2022/09/01 00:07:28;;;;;;;7.60;2.10;;;23.30;97.80;;;;;;4905519;29;20024;-74
2022/09/01 00:09:56;;;;;;;4.90;2.42;;;22.30;98.60;;;;;;4896613;29;20048;-72
2022/09/01 00:12:24;;;;;;;7.40;2.30;;;22.20;99.40;;;;;;4902803;29;20517;-76
2022/09/01 00:14:52;;;;;;;5.35;1.55;;;22.50;99.80;;;;;;4906111;29;20048;-74
2022/09/01 00:17:20;;;;;;;6.32;1.92;;;23.30;98.30;;;;;;4905702;29;20025;-76
2022/09/01 00:19:48;;;;;;;7.55;2.88;;;23.90;97.60;;;;;;4909169;29;20039;-74
2022/09/01 00:22:16;;;;;;;5.82;2.47;;;24.20;96.90;;;;;;4907367;29;20056;-73
2022/09/01 00:24:43;;;;;;;11.98;3.63;;;23.50;97.30;;;;;;4902188;29;20084;-76
2022/09/01 00:27:11;;;;;;;8.27;2.00;;;23.40;97.60;;;;;;4902509;29;20028;-75
2022/09/01 00:29:38;;;;;;;7.88;1.92;;;23.30;98.40;;;;;;4905568;29;20032;-71
2022/09/01 00:32:06;;;;;;;8.18;1.85;;;23.70;97.40;;;;;;4906777;29;20058;-71
2022/09/01 00:34:33;;;;;;;4.72;1.73;;;24.30;96.50;;;;;;4909084;29;20578;-72
2022/09/01 00:37:00;;;;;;;4.50;1.92;;;24.90;96.00;;;;;;4911238;29;20479;-74
2022/09/01 00:39:28;;;;;;;6.40;1.95;;;24.70;95.40;;;;;;4904029;29;20041;-76
2022/09/01 00:41:58;;;;;;;4.75;1.77;;;24.30;95.80;;;;;;4905987;29;20337;-71
2022/09/01 00:44:26;;;;;;;4.40;1.27;;;23.50;96.50;;;;;;4905982;29;20036;-71
2022/09/01 00:46:55;;;;;;;6.47;1.90;;;23.50;96.80;;;;;;4904032;29;20055;-72
2022/09/01 00:49:32;;;;;;;9.10;1.70;;;23.30;96.70;;;;;;4901643;29;20037;-71
2022/09/01 00:52:10;;;;;;;3.55;1.40;;;23.70;96.70;;;;;;4904727;29;20100;-71
2022/09/01 00:54:43;;;;;;;8.00;1.95;;;23.60;95.70;;;;;;4906786;29;20048;-71
2022/09/01 00:57:12;;;;;;;3.90;1.90;;;23.10;97.20;;;;;;4911219;29;20021;-72
2022/09/01 00:59:51;;;;;;;5.47;2.10;;;23.00;97.50;;;;;;4909907;29;20475;-73
2022/09/01 01:02:18;;;;;;;7.85;2.17;;;22.80;97.60;;;;;;4905979;29;20084;-70
2022/09/01 01:04:46;;;;;;;7.45;1.73;;;22.30;97.90;;;;;;4909616;29;20036;-73
2022/09/01 01:07:15;;;;;;;13.18;2.83;;;22.30;98.30;;;;;;4910602;29;20028;-74
2022/09/01 01:09:44;;;;;;;7.82;2.33;;;22.80;98.10;;;;;;4908036;29;20040;-76
2022/09/01 01:12:17;;;;;;;7.85;1.95;;;23.80;96.90;;;;;;4904607;29;20036;-73
2022/09/01 01:14:49;;;;;;;8.25;1.40;;;24.20;95.90;;;;;;4910392;29;20032;-74
2022/09/01 01:17:19;;;;;;;6.65;2.40;;;23.70;95.20;;;;;;4901867;29;20035;-74
2022/09/01 01:23:04;;;;;;;6.15;1.83;;;24.30;95.40;;;;;;4906690;29;20051;-75
2022/09/01 01:25:39;;;;;;;5.45;1.55;;;24.80;94.50;;;;;;4908745;29;20036;-73
2022/09/01 01:28:14;;;;;;;9.10;1.83;;;24.60;95.10;;;;;;4891047;29;20044;-73
2022/09/01 01:30:49;;;;;;;4.53;1.70;;;24.90;93.90;;;;;;4915993;29;20553;-73
2022/09/01 01:33:21;;;;;;;6.75;1.42;;;24.60;94.50;;;;;;4912967;29;20042;-74
2022/09/01 01:35:50;;;;;;;8.52;2.03;;;25.00;94.30;;;;;;4905564;29;20044;-73
2022/09/01 01:38:21;;;;;;;6.68;1.55;;;25.30;94.20;;;;;;4908930;29;20059;-75
2022/09/01 01:40:50;;;;;;;7.03;1.38;;;25.70;93.30;;;;;;4912548;29;20043;-74
2022/09/01 01:43:21;;;;;;;5.13;0.90;;;25.40;93.20;;;;;;4914334;29;20036;-74
2022/09/01 01:45:52;;;;;;;3.22;1.10;;;24.60;93.80;;;;;;4900824;29;20017;-73
2022/09/01 01:48:23;;;;;;;3.45;1.20;;;23.90;94.70;;;;;;4906099;29;20032;-75
2022/09/01 01:50:53;;;;;;;3.85;1.20;;;23.50;95.20;;;;;;4900302;29;20128;-73
2022/09/01 01:53:22;;;;;;;1.60;1.17;;;23.20;95.00;;;;;;4908710;29;20032;-74
2022/09/01 01:55:49;;;;;;;4.72;1.23;;;23.00;95.70;;;;;;4902431;29;20435;-75
2022/09/01 01:58:18;;;;;;;3.75;1.10;;;23.50;95.30;;;;;;4898259;29;20028;-72
2022/09/01 02:00:47;;;;;;;2.70;1.30;;;23.50;94.90;;;;;;4897277;29;20028;-71
2022/09/01 02:03:20;;;;;;;3.70;1.50;;;23.40;95.30;;;;;;4901630;29;20039;-71
2022/09/01 02:05:52;;;;;;;4.47;1.20;;;23.10;95.20;;;;;;4899589;29;20107;-72
2022/09/01 02:08:24;;;;;;;5.20;1.08;;;22.70;95.80;;;;;;4901131;29;20119;-74
2022/09/01 02:10:54;;;;;;;5.32;1.50;;;22.30;96.40;;;;;;4896877;29;20499;-73
2022/09/01 02:13:29;;;;;;;3.78;1.02;;;22.20;96.70;;;;;;4893918;29;20040;-76
2022/09/01 02:16:01;;;;;;;2.30;1.60;;;22.60;96.70;;;;;;4901823;29;20036;-71
2022/09/01 02:18:35;;;;;;;5.50;2.28;;;23.40;96.10;;;;;;4899087;29;20139;-69
2022/09/01 02:21:10;;;;;;;2.13;1.10;;;23.70;94.90;;;;;;4900499;29;20036;-75
2022/09/01 02:23:39;;;;;;;5.60;1.55;;;24.00;94.50;;;;;;4897083;29;20043;-76
2022/09/01 02:26:10;;;;;;;3.92;1.80;;;24.00;94.60;;;;;;4899610;29;20439;-75
2022/09/01 02:28:41;;;;;;;3.85;1.20;;;23.70;94.50;;;;;;4884715;29;20055;-71
2022/09/01 02:31:10;;;;;;;6.03;2.38;;;23.50;95.10;;;;;;4905818;29;20472;-74
2022/09/01 02:33:39;;;;;;;2.90;1.20;;;23.30;95.20;;;;;;4896708;29;20036;-75
2022/09/01 02:36:13;;;;;;;8.05;2.67;;;23.50;95.30;;;;;;4898634;29;20052;-74
2022/09/01 02:38:44;;;;;;;5.38;1.95;;;23.30;94.40;;;;;;4900159;29;20024;-72
2022/09/01 02:41:13;;;;;;;4.80;1.50;;;23.30;94.60;;;;;;4906297;29;20399;-73
2022/09/01 02:43:43;;;;;;;5.05;1.58;;;23.50;94.90;;;;;;4891205;29;20040;-73
2022/09/01 02:46:10;;;;;;;5.10;1.77;;;23.80;94.20;;;;;;4908231;29;20119;-74
2022/09/01 02:48:50;;;;;;;8.27;1.13;;;24.00;94.50;;;;;;4912751;29;20036;-72
2022/09/01 02:51:20;;;;;;;4.65;1.77;;;24.20;94.50;;;;;;4900977;29;20028;-73
2022/09/01 02:53:50;;;;;;;6.72;1.38;;;24.20;94.20;;;;;;4912537;29;20042;-74
2022/09/01 02:56:19;;;;;;;4.53;1.88;;;24.20;94.40;;;;;;4908365;29;20048;-73
2022/09/01 02:58:46;;;;;;;3.17;0.98;;;24.40;94.20;;;;;;4901203;29;20028;-72
2022/09/01 03:01:20;;;;;;;6.82;1.50;;;24.20;93.30;;;;;;4907975;29;20443;-72
2022/09/01 03:03:53;;;;;;;3.75;1.42;;;23.90;93.20;;;;;;4903196;29;20761;-73
2022/09/01 03:06:22;;;;;;;2.35;1.05;;;23.70;93.40;;;;;;4901023;29;20052;-74
2022/09/01 03:08:55;;;;;;;4.88;1.15;;;23.20;93.70;;;;;;4902840;29;20059;-72
2022/09/01 03:11:23;;;;;;;6.25;2.05;;;23.10;94.20;;;;;;4909241;29;20111;-74
2022/09/01 03:13:51;;;;;;;6.20;1.50;;;23.10;94.50;;;;;;4911449;29;20024;-74
2022/09/01 03:16:21;;;;;;;3.20;1.73;;;23.40;94.40;;;;;;4911961;29;20124;-71
2022/09/01 03:18:49;;;;;;;3.85;1.48;;;23.80;93.20;;;;;;4901146;29;21966;-73
2022/09/01 03:21:17;;;;;;;2.60;0.95;;;24.20;93.40;;;;;;4895367;29;20123;-72
2022/09/01 03:23:46;;;;;;;4.65;1.30;;;24.50;93.30;;;;;;4900183;29;20035;-71
2022/09/01 03:26:17;;;;;;;5.57;1.13;;;24.30;93.30;;;;;;4905825;29;20035;-73
2022/09/01 03:28:45;;;;;;;3.20;1.48;;;23.80;93.70;;;;;;4907813;29;20027;-72
2022/09/01 03:31:12;;;;;;;5.03;1.30;;;23.80;93.80;;;;;;4904248;29;20028;-73
2022/09/01 03:33:41;;;;;;;4.07;0.90;;;24.10;93.20;;;;;;4901967;29;20028;-71
2022/09/01 03:36:17;;;;;;;3.50;1.65;;;24.20;92.10;;;;;;4905077;29;20091;-75
2022/09/01 03:38:50;;;;;;;1.90;0.90;;;24.10;92.70;;;;;;4895507;29;20382;-72
2022/09/01 03:41:21;;;;;;;1.80;1.13;;;23.90;93.10;;;;;;4908100;29;20032;-73
2022/09/01 03:43:50;;;;;;;1.63;0.70;;;24.00;92.70;;;;;;4909427;29;20032;-73
2022/09/01 03:46:20;;;;;;;3.72;0.65;;;23.90;91.70;;;;;;4908964;29;20041;-72
2022/09/01 03:48:57;;;;;;;3.47;1.70;;;24.00;91.90;;;;;;4910009;29;20035;-72
2022/09/01 03:51:29;;;;;;;2.63;1.17;;;24.20;92.40;;;;;;4904676;29;20044;-71
2022/09/01 03:53:58;;;;;;;1.98;0.82;;;24.10;92.70;;;;;;4901432;29;20036;-74
2022/09/01 03:56:28;;;;;;;4.00;0.70;;;23.70;92.60;;;;;;4902970;29;20040;-72
2022/09/01 03:58:57;;;;;;;3.20;1.02;;;23.70;92.30;;;;;;4905143;29;20530;-71
2022/09/01 04:01:27;;;;;;;4.10;0.70;;;23.50;92.30;;;;;;4899209;29;20091;-72
2022/09/01 04:03:54;;;;;;;3.33;1.30;;;23.40;92.30;;;;;;4885585;29;20024;-72
2022/09/01 04:06:22;;;;;;;1.25;0.80;;;23.60;92.80;;;;;;4898799;29;20043;-75
2022/09/01 04:08:56;;;;;;;3.05;0.60;;;23.70;92.50;;;;;;4906465;29;20128;-76
2022/09/01 04:11:24;;;;;;;1.95;0.47;;;23.80;91.80;;;;;;4903927;29;20425;-74
2022/09/01 04:13:52;;;;;;;2.75;0.75;;;23.80;91.80;;;;;;4908420;29;20032;-74
2022/09/01 04:19:30;;;;;;;3.53;1.00;;;24.20;92.10;;;;;;4906803;29;20051;-76
2022/09/01 04:21:59;;;;;;;2.25;0.77;;;24.30;91.60;;;;;;4913028;29;20051;-76
2022/09/01 04:24:29;;;;;;;3.22;0.90;;;24.50;91.80;;;;;;4909488;29;20032;-71
2022/09/01 04:27:00;;;;;;;5.55;1.02;;;24.60;90.70;;;;;;4909431;29;20169;-74
2022/09/01 04:29:30;;;;;;;5.05;1.33;;;24.70;91.20;;;;;;4899926;29;20131;-73
2022/09/01 04:32:02;;;;;;;3.33;0.88;;;24.90;91.30;;;;;;4908437;29;20031;-73
2022/09/01 04:34:37;;;;;;;1.90;0.63;;;25.00;90.80;;;;;;4908557;29;20039;-74
2022/09/01 04:37:11;;;;;;;2.80;0.60;;;24.90;90.70;;;;;;4891267;29;20743;-74
2022/09/01 04:39:47;;;;;;;1.93;0.70;;;24.90;90.40;;;;;;4904236;29;20487;-72
2022/09/01 04:42:15;;;;;;;3.25;0.80;;;24.90;91.10;;;;;;4908218;29;20029;-71
2022/09/01 04:44:43;;;;;;;1.70;0.75;;;24.70;90.50;;;;;;4899308;29;20115;-72
2022/09/01 04:47:28;;;;;;;5.30;1.23;;;24.60;90.40;;;;;;4910982;29;20036;-73
2022/09/01 04:50:00;;;;;;;2.47;0.90;;;24.60;90.50;;;;;;4904242;29;20047;-72
2022/09/01 04:52:30;;;;;;;2.70;0.90;;;24.60;89.00;;;;;;4912230;29;20494;-72
2022/09/01 04:54:58;;;;;;;3.08;0.80;;;24.30;90.00;;;;;;4906252;29;20467;-73
2022/09/01 04:57:26;;;;;;;2.50;0.80;;;24.10;89.60;;;;;;4908917;29;20059;-74
2022/09/01 04:59:58;;;;;;;7.60;0.60;;;24.00;90.10;;;;;;4904624;29;20116;-73
2022/09/01 05:02:27;;;;;;;2.78;0.70;;;24.10;89.80;;;;;;4898262;29;20451;-75
2022/09/01 05:04:57;;;;;;;2.28;0.70;;;23.90;90.20;;;;;;4899535;29;20545;-73
2022/09/01 05:07:25;;;;;;;2.65;0.73;;;24.00;90.20;;;;;;4895769;29;20437;-74
2022/09/01 05:09:53;;;;;;;1.58;0.98;;;24.00;89.70;;;;;;4901446;29;20052;-74
2022/09/01 05:12:21;;;;;;;5.07;0.80;;;24.10;90.00;;;;;;4903373;29;20107;-71
2022/09/01 05:14:49;;;;;;;2.75;0.80;;;24.00;90.60;;;;;;4901287;29;20571;-72
2022/09/01 05:17:17;;;;;;;2.22;1.05;;;24.10;90.40;;;;;;4908351;29;20040;-73
2022/09/01 05:19:49;;;;;;;2.92;0.70;;;23.90;90.10;;;;;;4908022;29;20069;-72
2022/09/01 05:22:21;;;;;;;3.60;0.70;;;23.90;90.40;;;;;;4909514;29;20127;-72
2022/09/01 05:24:50;;;;;;;4.40;0.77;;;24.00;90.10;;;;;;4904072;29;20059;-72
2022/09/01 05:27:18;;;;;;;2.20;0.52;;;24.00;89.10;;;;;;4912515;29;20455;-72
2022/09/01 05:29:45;;;;;;;1.38;0.60;;;24.00;89.30;;;;;;4907237;29;20036;-72
2022/09/01 05:32:13;;;;;;;3.53;0.65;;;23.90;89.90;;;;;;4904324;29;20036;-73
2022/09/01 05:34:42;;;;;;;2.45;0.75;;;23.80;89.30;;;;;;4899199;29;20135;-73
2022/09/01 05:37:13;;;;;;;2.42;0.95;;;23.60;90.20;;;;;;4907218;29;20051;-72
2022/09/01 05:39:40;;;;;;;3.22;0.68;;;23.60;90.50;;;;;;4905167;29;20050;-73
2022/09/01 05:42:08;;;;;;;2.60;0.63;;;23.50;89.80;;;;;;4905831;29;20036;-74
2022/09/01 05:44:42;;;;;;;2.05;0.38;;;23.40;90.30;;;;;;4905155;29;20035;-74
2022/09/01 05:47:11;;;;;;;5.25;0.85;;;23.30;90.30;;;;;;4902410;29;20115;-73
2022/09/01 05:49:38;;;;;;;1.88;0.60;;;23.30;90.20;;;;;;4904662;29;20100;-73
2022/09/01 05:52:08;;;;;;;2.70;0.50;;;23.20;90.80;;;;;;4898942;29;20099;-72
2022/09/01 05:54:35;;;;;;;3.20;0.68;;;23.20;90.50;;;;;;4913476;29;20115;-73
2022/09/01 05:57:03;;;;;;;2.65;0.60;;;23.10;90.90;;;;;;4907972;29;20035;-72
2022/09/01 05:59:31;;;;;;;3.78;0.77;;;23.20;90.50;;;;;;4915703;29;20035;-73
2022/09/01 06:01:59;;;;;;;3.00;0.70;;;23.20;91.00;;;;;;4912154;29;20117;-72
2022/09/01 06:04:28;;;;;;;4.35;1.17;;;23.30;91.00;;;;;;4912119;29;20051;-71
2022/09/01 06:06:56;;;;;;;1.63;0.60;;;23.30;91.30;;;;;;4908788;29;20102;-72
2022/09/01 06:09:23;;;;;;;6.30;1.08;;;23.30;90.80;;;;;;4907835;29;20048;-74
2022/09/01 06:11:51;;;;;;;2.58;0.60;;;23.30;91.00;;;;;;4909221;29;20115;-74
2022/09/01 06:14:19;;;;;;;0.70;0.45;;;23.30;91.40;;;;;;4890276;29;20103;-72
2022/09/01 06:16:47;;;;;;;2.40;0.90;;;23.20;90.90;;;;;;4913573;29;20488;-73
2022/09/01 06:19:14;;;;;;;2.58;0.55;;;23.10;90.40;;;;;;4914073;29;20392;-73
2022/09/01 06:21:42;;;;;;;1.83;0.50;;;22.90;90.80;;;;;;4909966;29;20028;-75
2022/09/01 06:24:09;;;;;;;1.27;0.40;;;22.70;91.00;;;;;;4907097;29;20096;-74
2022/09/01 06:26:39;;;;;;;1.10;0.40;;;22.40;91.50;;;;;;4908759;29;20108;-71
2022/09/01 06:29:14;;;;;;;1.17;0.70;;;22.20;91.60;;;;;;4905511;29;20101;-71
2022/09/01 06:31:44;;;;;;;3.20;0.50;;;22.10;91.80;;;;;;4914450;29;20032;-71
2022/09/01 06:34:16;;;;;;;2.97;0.68;;;22.00;91.70;;;;;;4912482;29;20449;-73
2022/09/01 06:36:47;;;;;;;2.03;1.02;;;22.00;92.20;;;;;;4893963;29;20036;-73
2022/09/01 06:39:19;;;;;;;4.18;1.02;;;22.00;92.10;;;;;;4907968;29;20032;-71
2022/09/01 06:41:51;;;;;;;3.85;0.50;;;21.90;92.00;;;;;;4903596;29;20036;-70
2022/09/01 06:44:21;;;;;;;1.88;0.80;;;21.80;92.00;;;;;;4899507;29;20574;-72
2022/09/01 06:46:51;;;;;;;1.80;0.57;;;21.80;92.60;;;;;;4910467;29;20119;-76
2022/09/01 06:49:20;;;;;;;4.00;1.17;;;21.70;92.50;;;;;;4901811;29;20028;-73
2022/09/01 06:51:48;;;;;;;2.97;0.47;;;21.60;92.00;;;;;;4909644;29;20127;-71
2022/09/01 06:54:16;;;;;;;0.75;0.50;;;21.50;92.10;;;;;;4889913;29;20560;-73
2022/09/01 06:56:43;;;;;;;1.77;0.60;;;21.50;92.30;;;;;;4901433;29;20099;-72
2022/09/01 06:59:14;;;;;;;2.83;1.48;;;21.50;92.40;;;;;;4903040;29;20044;-72
2022/09/01 07:01:41;;;;;;;4.13;0.98;;;21.60;92.50;;;;;;4903074;29;20131;-72
2022/09/01 07:04:09;;;;;;;4.72;1.25;;;21.50;92.30;;;;;;4900940;29;20024;-71
2022/09/01 07:06:38;;;;;;;6.80;1.17;;;21.40;92.60;;;;;;4901582;29;20046;-71
2022/09/01 07:09:06;;;;;;;4.07;1.48;;;21.40;92.60;;;;;;4900368;29;20499;-72
2022/09/01 07:11:35;;;;;;;2.55;1.10;;;21.30;95.50;;;;;;4900877;29;20024;-72
2022/09/01 07:14:05;;;;;;;3.42;1.33;;;21.20;96.20;;;;;;4899938;29;20034;-73
2022/09/01 07:16:39;;;;;;;6.53;2.25;;;21.20;97.20;;;;;;4901499;29;20046;-71
2022/09/01 07:19:17;;;;;;;4.53;1.20;;;20.90;98.00;;;;;;4901607;29;20423;-72
2022/09/01 07:21:45;;;;;;;6.50;1.60;;;20.80;98.30;;;;;;4900419;29;20021;-73
2022/09/01 07:24:16;;;;;;;7.45;2.15;;;20.60;98.80;;;;;;4899604;29;20127;-71
2022/09/01 07:26:49;;;;;;;8.65;2.40;;;20.50;99.00;;;;;;4904855;29;20040;-72
2022/09/01 07:29:18;;;;;;;6.78;1.73;;;20.50;99.40;;;;;;4899449;29;20039;-73
2022/09/01 07:31:46;;;;;;;8.88;2.40;;;20.30;99.40;;;;;;4901299;29;20032;-74
2022/09/01 07:34:15;;;;;;;7.78;1.98;;;20.30;99.70;;;;;;4898081;29;20122;-72
2022/09/01 07:36:44;;;;;;;7.07;1.98;;;20.20;99.90;;;;;;4898708;29;20039;-72
2022/09/01 07:39:13;;;;;;;6.97;1.85;;;20.10;99.90;;;;;;4895940;29;20102;-73
2022/09/01 07:41:41;;;;;;;4.38;1.70;;;20.10;99.90;;;;;;4905587;29;20524;-71
2022/09/01 07:44:11;;;;;;;9.40;1.75;;;20.00;99.90;;;;;;4907670;29;20036;-71
2022/09/01 07:46:40;;;;;;;11.32;2.80;;;19.90;99.90;;;;;;4901451;29;20111;-71
2022/09/01 07:49:08;;;;;;;4.47;1.33;;;19.80;99.90;;;;;;4904116;29;20040;-72
2022/09/01 07:51:35;;;;;;;7.65;1.00;;;19.60;99.90;;;;;;4905990;29;20060;-72
2022/09/01 07:54:03;;;;;;;4.43;1.20;;;19.60;99.90;;;;;;4909639;29;20468;-71
2022/09/01 07:56:30;;;;;;;7.80;2.28;;;19.50;99.90;;;;;;4912164;29;20048;-72
2022/09/01 07:58:58;;;;;;;6.20;1.10;;;19.30;99.90;;;;;;4906371;29;20067;-71
2022/09/01 08:01:27;;;;;;;6.22;1.45;;;19.30;99.90;;;;;;4901087;29;20500;-72
2022/09/01 08:03:58;;;;;;;6.70;1.70;;;19.20;99.90;;;;;;4897207;29;20419;-75
2022/09/01 08:06:27;;;;;;;4.45;1.10;;;19.20;99.90;;;;;;4901756;29;20064;-73
2022/09/01 08:08:58;;;;;;;6.97;1.40;;;19.20;99.90;;;;;;4899065;29;20042;-72
2022/09/01 08:11:28;;;;;;;3.80;1.77;;;19.10;99.90;;;;;;4902075;29;20427;-73
2022/09/01 08:13:57;;;;;;;8.20;1.55;;;19.10;99.90;;;;;;4901007;29;20036;-73
2022/09/01 08:16:27;;;;;;;7.35;1.40;;;19.00;99.90;;;;;;4898217;29;20052;-72
2022/09/01 08:18:54;;;;;;;4.40;2.15;;;18.80;99.90;;;;;;4904422;29;20059;-76
2022/09/01 08:21:23;;;;;;;7.20;0.90;;;18.70;99.90;;;;;;4907729;29;20103;-74
2022/09/01 08:23:53;;;;;;;4.35;1.45;;;18.70;99.90;;;;;;4899346;29;20031;-75
2022/09/01 08:26:24;;;;;;;4.75;1.23;;;18.60;99.90;;;;;;4900278;29;20480;-75
2022/09/01 08:28:52;;;;;;;11.73;1.92;;;18.50;99.90;;;;;;4897668;29;20050;-74
2022/09/01 08:31:20;;;;;;;12.88;1.30;;;18.40;99.90;;;;;;4900677;29;20078;-76
2022/09/01 08:33:48;;;;;;;5.38;1.38;;;18.30;99.90;;;;;;4897813;29;20059;-75
2022/09/01 08:36:17;;;;;;;8.90;1.45;;;18.30;99.90;;;;;;4896547;29;20044;-74
2022/09/01 08:38:45;;;;;;;10.80;1.52;;;18.20;99.90;;;;;;4884012;29;20108;-74
2022/09/01 08:41:28;;;;;;;7.00;1.73;;;18.20;99.90;;;;;;4901412;29;20067;-77
2022/09/01 08:44:18;;;;;;;7.53;1.65;;;18.10;99.90;;;;;;4900834;29;20087;-76
2022/09/01 08:46:46;;;;;;;8.45;1.60;;;18.10;99.90;;;;;;4900190;29;20036;-73
2022/09/01 08:49:24;;;;;;;12.35;1.95;;;18.00;99.90;;;;;;4911347;29;20039;-75
2022/09/01 08:52:13;;;;;;;11.00;1.70;;;18.00;99.90;;;;;;4910896;29;20096;-71
2022/09/01 08:54:48;;;;;;;12.68;2.53;;;18.10;99.90;;;;;;4908709;29;20024;-73
2022/09/01 08:57:44;;;;;;;4.13;0.95;;;18.10;99.90;;;;;;4912648;29;20052;-72
2022/09/01 09:00:16;;;;;;;10.43;2.88;;;18.00;99.90;;;;;;4910014;29;20044;-72
2022/09/01 09:03:07;;;;;;;7.45;2.42;;;18.00;99.90;;;;;;4915323;29;20441;-73
2022/09/01 09:06:10;;;;;;;10.88;1.50;;;17.90;99.90;;;;;;4896155;29;20071;-73
2022/09/01 09:08:50;;;;;;;8.38;1.58;;;17.90;99.90;;;;;;4907884;29;20063;-74
2022/09/01 09:11:35;;;;;;;4.65;1.75;;;17.90;99.90;;;;;;4897371;29;20041;-72
2022/09/01 09:14:20;;;;;;;12.52;4.40;;;17.80;99.90;;;;;;4904901;29;20531;-72
2022/09/01 09:16:54;;;;;;;11.70;2.35;;;17.80;99.90;;;;;;4902764;29;20127;-72
2022/09/01 09:19:35;;;;;;;7.85;2.22;;;17.70;99.90;;;;;;4910046;29;20108;-72
2022/09/01 09:22:11;;;;;;;7.15;1.88;;;17.70;99.90;;;;;;4912733;29;20063;-72
2022/09/01 09:24:48;;;;;;;4.45;1.88;;;17.70;99.90;;;;;;4909573;29;20028;-72
2022/09/01 09:27:29;;;;;;;6.70;2.08;;;17.60;99.90;;;;;;4908976;29;20550;-71
2022/09/01 09:29:58;;;;;;;6.40;1.85;;;17.60;99.90;;;;;;4913702;29;20036;-72
2022/09/01 09:32:42;;;;;;;8.93;2.13;;;17.60;99.90;;;;;;4913916;29;20059;-72
2022/09/01 09:35:35;;;;;;;5.82;1.60;;;17.60;99.90;;;;;;4905381;29;20040;-71
2022/09/01 09:38:19;;;;;;;9.75;1.98;;;17.60;99.90;;;;;;4897774;29;20046;-73
2022/09/01 09:41:05;;;;;;;8.57;1.73;;;17.60;99.90;;;;;;4916629;29;20035;-72
2022/09/01 09:43:37;;;;;;;12.38;2.58;;;17.60;99.90;;;;;;4911900;29;20043;-73
2022/09/01 09:46:26;;;;;;;6.05;2.13;;;17.60;99.90;;;;;;4910277;29;20028;-74
2022/09/01 09:49:18;;;;;;;9.55;2.10;;;17.60;99.90;;;;;;4900345;29;20538;-72
2022/09/01 09:51:52;;;;;;;10.13;2.40;;;17.60;99.90;;;;;;4911642;29;20024;-72
2022/09/01 09:54:23;;;;;;;9.85;2.38;;;17.50;99.90;;;;;;4910565;29;20044;-73
2022/09/01 09:57:13;;;;;;;11.30;2.10;;;17.40;99.90;;;;;;4912655;29;20122;-73
2022/09/01 09:59:56;;;;;;;4.97;2.08;;;17.40;99.90;;;;;;4902605;29;20343;-73
2022/09/01 10:02:31;;;;;;;11.00;1.50;;;17.30;99.90;;;;;;4903325;29;20036;-74
2022/09/01 10:05:33;;;;;;;11.00;1.92;;;17.20;99.90;;;;;;4908413;29;20392;-73
2022/09/01 10:08:00;;;;;;;8.52;1.95;;;17.20;99.90;;;;;;4901451;29;20035;-73
2022/09/01 10:10:31;;;;;;;7.15;1.67;;;17.10;99.90;;;;;;4910773;29;20503;-76
2022/09/01 10:12:59;;;;;;;7.60;1.48;;;17.10;99.90;;;;;;4913320;29;20036;-73
2022/09/01 10:15:31;;;;;;;7.30;2.70;;;17.00;99.90;;;;;;4906965;29;20052;-74
2022/09/01 10:18:20;;;;;;;6.90;1.20;;;16.90;99.90;;;;;;4913474;29;20020;-73
2022/09/01 10:21:02;;;;;;;8.40;1.33;;;16.80;99.90;;;;;;4909459;29;20042;-73
2022/09/01 10:23:33;;;;;;;7.13;1.48;;;16.80;99.90;;;;;;4898668;29;20647;-73
2022/09/01 10:26:12;;;;;;;6.75;1.75;;;16.70;99.90;;;;;;4910362;29;20035;-74
2022/09/01 10:29:06;;;;;;;7.05;1.15;;;16.70;99.90;;;;;;4906724;29;20524;-74
2022/09/01 10:31:35;;;;;;;5.78;1.65;;;16.70;99.90;;;;;;4904167;29;20023;-74
2022/09/01 10:34:05;;;;;;;8.25;1.58;;;16.60;99.90;;;;;;4914614;29;20131;-74
2022/09/01 10:36:35;;;;;;;6.82;1.92;;;16.50;99.90;;;;;;4911528;29;20075;-74
2022/09/01 10:39:04;;;;;;;5.03;1.80;;;16.50;99.90;;;;;;4906219;29;20035;-75
2022/09/01 10:41:56;;;;;;;9.90;1.58;;;16.40;99.90;;;;;;4902178;29;20032;-76
2022/09/01 10:44:35;;;;;;;4.72;1.77;;;16.30;99.90;;;;;;4902930;29;20341;-73
2022/09/01 10:47:32;;;;;;;3.97;2.25;;;16.40;99.90;;;;;;4912527;29;20036;-75
2022/09/01 10:50:26;;;;;;;6.97;1.05;;;16.30;99.90;;;;;;4910462;29;20039;-75
2022/09/01 10:52:58;;;;;;;10.38;1.40;;;16.20;99.90;;;;;;4911608;29;20176;-74
2022/09/01 10:55:27;;;;;;;4.45;1.67;;;16.20;99.90;;;;;;4908922;29;20040;-73
2022/09/01 10:58:13;;;;;;;6.90;1.55;;;16.10;99.90;;;;;;4910798;29;20031;-74
2022/09/01 11:00:44;;;;;;;5.13;1.70;;;16.10;99.90;;;;;;4906025;29;20028;-75
2022/09/01 11:03:12;;;;;;;6.13;1.35;;;16.00;99.90;;;;;;4898119;29;20040;-74
2022/09/01 11:05:57;;;;;;;7.10;1.70;;;16.00;99.90;;;;;;4907747;29;20038;-76
2022/09/01 11:08:44;;;;;;;6.40;1.20;;;16.00;99.90;;;;;;4922831;29;20496;-75
2022/09/01 11:11:34;;;;;;;8.10;1.52;;;15.90;99.90;;;;;;4906007;29;20800;-74
2022/09/01 11:14:05;;;;;;;5.38;1.80;;;15.80;99.90;;;;;;4905799;29;20048;-74
2022/09/01 11:16:34;;;;;;;4.97;2.20;;;15.70;99.90;;;;;;4912793;29;20393;-74
2022/09/01 11:19:17;;;;;;;7.07;1.38;;;15.60;99.90;;;;;;4905862;29;20039;-73
2022/09/01 11:21:44;;;;;;;7.82;2.22;;;15.60;99.90;;;;;;4914004;29;20036;-75
2022/09/01 11:24:45;;;;;;;8.80;2.25;;;15.50;99.90;;;;;;4907257;29;20378;-72
2022/09/01 11:27:47;;;;;;;8.55;1.42;;;15.50;99.90;;;;;;4904081;29;20033;-76
2022/09/01 11:30:24;;;;;;;12.05;1.75;;;15.40;99.90;;;;;;4905219;29;20028;-79
2022/09/01 11:32:57;;;;;;;6.35;2.33;;;15.40;99.90;;;;;;4908204;29;20372;-81
2022/09/01 11:35:28;;;;;;;7.10;1.58;;;15.40;99.90;;;;;;4904570;29;20401;-77
2022/09/01 11:38:06;;;;;;;3.60;1.00;;;15.40;99.90;;;;;;4912796;29;20127;-77
2022/09/01 11:40:35;;;;;;;8.88;1.92;;;15.40;99.90;;;;;;4907923;29;20030;-75
2022/09/01 11:43:15;;;;;;;4.32;1.90;;;15.40;99.90;;;;;;4908734;29;20145;-80
2022/09/01 11:46:19;;;;;;;6.05;1.50;;;15.30;99.90;;;;;;4912315;29;20097;-80
2022/09/01 11:48:50;;;;;;;10.55;1.52;;;15.30;99.90;;;;;;4909671;29;20032;-73
2022/09/01 11:51:17;;;;;;;7.15;1.65;;;15.30;99.90;;;;;;4905229;29;20032;-76
2022/09/01 11:53:45;;;;;;;3.92;1.90;;;15.30;99.90;;;;;;4911110;29;20109;-79
2022/09/01 11:56:19;;;;;;;5.25;2.10;;;15.30;99.90;;;;;;4909358;29;20040;-76
2022/09/01 11:58:46;;;;;;;9.45;1.70;;;15.30;99.90;;;;;;4906201;29;20032;-76
2022/09/01 12:01:30;;;;;;;6.05;1.35;;;15.30;99.90;;;;;;4907468;29;20040;-75
2022/09/01 12:04:21;;;;;;;9.63;1.67;;;15.30;99.90;;;;;;4902401;29;20367;-78
2022/09/01 12:07:23;;;;;;;2.15;1.35;;;15.20;99.90;;;;;;4908856;29;20035;-78
2022/09/01 12:09:51;;;;;;;7.38;1.35;;;15.20;99.90;;;;;;4910753;29;20048;-80
2022/09/01 12:12:32;;;;;;;9.73;1.38;;;15.20;99.90;;;;;;4906157;29;20096;-78
2022/09/01 12:15:09;;;;;;;6.45;1.27;;;15.10;99.90;;;;;;4906523;29;20092;-77
2022/09/01 12:17:37;;;;;;;5.45;1.33;;;15.10;99.90;;;;;;4904613;29;20124;-79
2022/09/01 12:20:39;;;;;;;4.07;1.48;;;15.10;99.90;;;;;;4901348;29;20138;-77
2022/09/01 12:23:28;;;;;;;5.70;1.50;;;15.00;99.90;;;;;;4851154;29;20048;-76
2022/09/01 12:26:11;;;;;;;10.65;1.77;;;15.00;99.90;;;;;;4906563;29;20404;-76
2022/09/01 12:28:40;;;;;;;8.90;2.45;;;15.00;99.90;;;;;;4910208;29;20047;-75
2022/09/01 12:31:17;;;;;;;7.95;1.98;;;15.00;99.90;;;;;;4904060;29;20047;-74
2022/09/01 12:33:46;;;;;;;3.95;1.60;;;14.90;99.90;;;;;;4902612;29;20141;-77
2022/09/01 12:36:24;;;;;;;5.28;1.63;;;14.90;99.90;;;;;;4906041;29;20050;-75
2022/09/01 12:38:54;;;;;;;6.60;1.90;;;14.80;99.90;;;;;;4909324;29;20055;-76
2022/09/01 12:41:37;;;;;;;5.38;1.52;;;14.80;99.90;;;;;;4908385;29;20066;-75
2022/09/01 12:44:31;;;;;;;7.13;2.25;;;14.80;99.90;;;;;;4901946;29;20024;-75
2022/09/01 12:47:25;;;;;;;7.57;2.20;;;14.70;99.90;;;;;;4904873;29;20036;-77
2022/09/01 12:49:52;;;;;;;10.40;2.08;;;14.70;99.90;;;;;;4904806;29;20476;-75
2022/09/01 12:52:27;;;;;;;13.27;3.55;;;14.60;99.90;;;;;;4889949;29;20329;-75
2022/09/01 12:55:16;;;;;;;6.20;2.45;;;14.60;99.90;;;;;;4905952;29;20032;-78
2022/09/01 12:57:56;;;;;;;4.78;2.28;;;14.60;99.90;;;;;;4903500;29;20032;-78
2022/09/01 13:00:27;;;;;;;4.45;1.63;;;14.60;99.90;;;;;;4911629;29;20036;-74
2022/09/01 13:03:20;;;;;;;6.78;2.15;;;14.50;99.90;;;;;;4914191;29;20095;-73
2022/09/01 13:05:51;;;;;;;7.82;2.38;;;14.50;99.90;;;;;;4913301;29;20124;-73
2022/09/01 13:08:25;;;;;;;3.05;1.67;;;14.50;99.90;;;;;;4918199;29;20039;-75
2022/09/01 13:11:02;;;;;;;4.57;1.95;;;14.40;99.90;;;;;;4912292;29;20040;-76
2022/09/01 13:13:30;;;;;;;7.68;2.00;;;14.40;99.90;;;;;;4913657;29;20114;-75
2022/09/01 13:16:11;;;;;;;6.45;1.50;;;14.30;99.90;;;;;;4914192;29;20043;-74
2022/09/01 13:18:39;;;;;;;7.05;2.42;;;14.30;99.90;;;;;;4912903;29;20036;-72
2022/09/01 13:21:07;;;;;;;6.40;2.53;;;14.20;99.90;;;;;;4914517;29;20059;-75
2022/09/01 13:23:36;;;;;;;5.95;1.88;;;14.20;99.90;;;;;;4910157;29;20329;-73